createdAt,value
2018-12-17T00:00:44.054Z,24.10
2018-12-17T00:03:12.133Z,22.27
2018-12-17T00:05:41.852Z,22.70
2018-12-17T00:08:10.400Z,24.17
2018-12-17T00:10:38.433Z,22.17
2018-12-17T00:13:06.635Z,21.73
2018-12-17T00:15:34.707Z,24.10
2018-12-17T00:18:02.840Z,19.23
2018-12-17T00:20:30.953Z,21.40
2018-12-17T00:22:59.109Z,24.07
2018-12-17T00:25:27.181Z,22.10
2018-12-17T00:27:55.262Z,22.13
2018-12-17T00:30:23.302Z,23.00
2018-12-17T00:32:51.481Z,20.67
2018-12-17T00:35:19.667Z,20.93
2018-12-17T00:37:47.720Z,25.97
2018-12-17T00:40:15.949Z,21.83
2018-12-17T00:42:44.177Z,17.27
2018-12-17T00:45:12.287Z,21.00
2018-12-17T00:47:40.421Z,22.40
2018-12-17T00:50:08.597Z,22.60
2018-12-17T00:52:36.769Z,23.23
2018-12-17T00:55:05.275Z,18.73
2018-12-17T00:57:33.356Z,20.50
2018-12-17T01:00:01.485Z,20.43
2018-12-17T01:02:29.532Z,23.33
2018-12-17T01:04:57.709Z,23.07
2018-12-17T01:07:27.742Z,21.33
2018-12-17T01:09:55.889Z,22.50
2018-12-17T01:12:23.940Z,21.87
2018-12-17T01:14:52.056Z,24.17
2018-12-17T01:17:20.226Z,18.70
2018-12-17T01:19:48.266Z,23.70
2018-12-17T01:22:16.439Z,20.97
2018-12-17T01:24:44.552Z,22.87
2018-12-17T01:27:12.723Z,22.90
2018-12-17T01:29:40.795Z,20.03
2018-12-17T01:32:08.841Z,21.77
2018-12-17T01:34:36.906Z,21.20
2018-12-17T01:37:04.989Z,19.43
2018-12-17T01:39:33.235Z,17.53
2018-12-17T01:42:01.293Z,16.60
2018-12-17T01:44:29.365Z,20.20
2018-12-17T01:46:57.443Z,18.83
2018-12-17T01:49:25.517Z,18.10
2018-12-17T01:51:53.629Z,16.87
2018-12-17T01:54:21.681Z,21.97
2018-12-17T01:56:49.750Z,22.57
2018-12-17T01:59:17.833Z,20.50
2018-12-17T02:01:45.956Z,22.13
2018-12-17T02:04:14.091Z,22.20
2018-12-17T02:06:42.267Z,19.70
2018-12-17T02:09:10.441Z,21.57
2018-12-17T02:11:38.507Z,22.73
2018-12-17T02:14:06.615Z,24.00
2018-12-17T02:16:34.654Z,19.93
2018-12-17T02:19:02.763Z,20.03
2018-12-17T02:21:30.793Z,15.50
2018-12-17T02:23:58.979Z,19.27
2018-12-17T02:26:27.040Z,18.00
2018-12-17T02:28:55.188Z,15.93
2018-12-17T02:31:23.258Z,17.53
2018-12-17T02:33:51.303Z,20.13
2018-12-17T02:36:19.383Z,19.97
2018-12-17T02:38:47.470Z,19.70
2018-12-17T02:41:15.532Z,18.77
2018-12-17T02:43:43.673Z,21.03
2018-12-17T02:46:11.843Z,18.03
2018-12-17T02:48:39.916Z,18.50
2018-12-17T02:51:07.981Z,16.67
2018-12-17T02:53:36.053Z,18.97
2018-12-17T02:56:04.168Z,21.30
2018-12-17T02:58:32.297Z,20.73
2018-12-17T03:01:00.363Z,17.03
2018-12-17T03:03:28.451Z,18.43
2018-12-17T03:05:56.563Z,16.57
2018-12-17T03:08:24.757Z,19.17
2018-12-17T03:10:52.896Z,15.27
2018-12-17T03:13:20.947Z,13.83
2018-12-17T03:15:49.043Z,24.03
2018-12-17T03:18:17.092Z,21.27
2018-12-17T03:20:45.186Z,18.07
2018-12-17T03:23:13.355Z,21.50
2018-12-17T03:25:41.428Z,15.57
2018-12-17T03:28:09.499Z,15.70
2018-12-17T03:30:37.636Z,20.70
2018-12-17T03:33:05.802Z,22.70
2018-12-17T03:35:33.876Z,17.80
2018-12-17T03:38:02.050Z,18.67
2018-12-17T03:40:30.837Z,16.57
2018-12-17T03:42:58.927Z,19.27
2018-12-17T03:45:26.984Z,18.03
2018-12-17T03:47:55.046Z,19.47
2018-12-17T03:50:23.200Z,17.23
2018-12-17T03:52:51.286Z,16.93
2018-12-17T03:55:19.349Z,17.63
2018-12-17T03:57:47.499Z,20.23
2018-12-17T04:00:15.586Z,18.83
2018-12-17T04:02:43.687Z,17.77
2018-12-17T04:05:11.728Z,15.20
2018-12-17T04:07:39.792Z,16.77
2018-12-17T04:10:07.986Z,21.33
2018-12-17T04:12:36.065Z,18.20
2018-12-17T04:15:04.985Z,19.73
2018-12-17T04:17:33.047Z,20.10
2018-12-17T04:20:01.123Z,20.13
2018-12-17T04:22:29.177Z,20.43
2018-12-17T04:24:57.275Z,23.07
2018-12-17T04:27:25.362Z,16.83
2018-12-17T04:29:53.425Z,17.93
2018-12-17T04:32:21.559Z,21.17
2018-12-17T04:34:49.650Z,16.87
2018-12-17T04:37:17.721Z,17.60
2018-12-17T04:39:45.896Z,23.23
2018-12-17T04:42:13.987Z,19.07
2018-12-17T04:44:42.063Z,21.00
2018-12-17T04:47:10.152Z,19.13
2018-12-17T04:49:38.244Z,16.93
2018-12-17T04:52:06.333Z,24.93
2018-12-17T04:54:34.451Z,24.63
2018-12-17T04:57:02.604Z,23.10
2018-12-17T04:59:30.774Z,15.73
2018-12-17T05:01:58.844Z,19.40
2018-12-17T05:04:27.041Z,20.33
2018-12-17T05:06:55.083Z,22.10
2018-12-17T05:09:23.163Z,22.97
2018-12-17T05:11:51.255Z,20.63
2018-12-17T05:14:19.312Z,21.37
2018-12-17T05:16:47.509Z,24.03
2018-12-17T05:19:15.662Z,22.40
2018-12-17T05:21:43.733Z,20.43
2018-12-17T05:24:11.814Z,23.80
2018-12-17T05:26:39.877Z,21.30
2018-12-17T05:29:07.952Z,26.30
2018-12-17T05:31:36.022Z,23.80
2018-12-17T05:34:04.101Z,24.23
2018-12-17T05:36:32.190Z,26.07
2018-12-17T05:39:00.289Z,22.07
2018-12-17T05:41:28.355Z,23.17
2018-12-17T05:43:56.577Z,24.40
2018-12-17T05:46:24.638Z,25.60
2018-12-17T05:48:52.764Z,28.50
2018-12-17T05:51:20.878Z,25.70
2018-12-17T05:53:49.391Z,28.00
2018-12-17T05:56:17.481Z,23.00
2018-12-17T05:58:45.564Z,22.83
2018-12-17T06:01:13.670Z,21.60
2018-12-17T06:03:41.768Z,20.37
2018-12-17T06:06:10.162Z,26.10
2018-12-17T06:08:38.349Z,20.50
2018-12-17T06:11:06.418Z,20.70
2018-12-17T06:13:34.518Z,20.43
2018-12-17T06:16:02.701Z,25.87
2018-12-17T06:18:30.775Z,21.10
2018-12-17T06:20:58.990Z,20.13
2018-12-17T06:23:27.082Z,23.33
2018-12-17T06:25:55.156Z,24.60
2018-12-17T06:28:23.234Z,32.17
2018-12-17T06:30:51.308Z,28.73
2018-12-17T06:33:19.389Z,27.30
2018-12-17T06:35:47.461Z,31.83
2018-12-17T06:38:15.633Z,22.97
2018-12-17T06:40:43.697Z,26.73
2018-12-17T06:43:11.821Z,37.07
2018-12-17T06:45:39.917Z,33.10
2018-12-17T06:48:07.990Z,32.57
2018-12-17T06:50:36.162Z,35.60
2018-12-17T06:53:04.252Z,34.17
2018-12-17T06:55:32.394Z,31.87
2018-12-17T06:58:00.950Z,28.10
2018-12-17T07:00:29.051Z,29.67
2018-12-17T07:02:57.162Z,26.03
2018-12-17T07:05:25.240Z,29.10
2018-12-17T07:07:53.304Z,30.83
2018-12-17T07:10:21.354Z,26.83
2018-12-17T07:12:49.548Z,22.87
2018-12-17T07:15:17.722Z,22.07
2018-12-17T07:17:45.747Z,23.67
2018-12-17T07:20:13.823Z,25.13
2018-12-17T07:22:41.974Z,27.03
2018-12-17T07:25:10.158Z,28.97
2018-12-17T07:27:38.243Z,30.80
2018-12-17T07:30:07.286Z,24.30
2018-12-17T07:32:35.345Z,27.67
2018-12-17T07:35:04.382Z,24.57
2018-12-17T07:37:32.461Z,22.77
2018-12-17T07:40:00.726Z,28.23
2018-12-17T07:42:28.753Z,25.83
2018-12-17T07:44:56.892Z,27.30
2018-12-17T07:47:24.956Z,26.23
2018-12-17T07:49:53.034Z,30.97
2018-12-17T07:52:21.554Z,29.47
2018-12-17T07:54:49.662Z,26.50
2018-12-17T07:57:17.725Z,27.43
2018-12-17T07:59:45.767Z,27.47
2018-12-17T08:02:13.851Z,29.07
2018-12-17T08:04:41.906Z,33.83
2018-12-17T08:07:10.020Z,30.27
2018-12-17T08:09:38.244Z,27.93
2018-12-17T08:12:06.278Z,30.43
2018-12-17T08:14:34.408Z,22.90
2018-12-17T08:17:03.552Z,24.87
2018-12-17T08:19:31.741Z,25.30
2018-12-17T08:22:00.226Z,27.70
2018-12-17T08:24:28.686Z,19.07
2018-12-17T08:26:56.893Z,26.50
2018-12-17T08:29:24.939Z,22.40
2018-12-17T08:31:53.060Z,25.57
2018-12-17T08:34:21.203Z,23.53
2018-12-17T08:36:49.232Z,19.90
2018-12-17T08:39:17.323Z,20.83
2018-12-17T08:41:45.405Z,22.10
2018-12-17T08:44:13.631Z,19.13
2018-12-17T08:46:41.704Z,30.37
2018-12-17T08:49:09.844Z,34.53
2018-12-17T08:51:37.915Z,25.13
2018-12-17T08:54:06.013Z,25.40
2018-12-17T08:56:34.077Z,26.10
2018-12-17T08:59:02.150Z,21.90
2018-12-17T09:01:30.312Z,28.20
2018-12-17T09:03:58.365Z,28.30
2018-12-17T09:06:26.532Z,14.07
2018-12-17T09:08:54.592Z,27.73
2018-12-17T09:11:22.804Z,22.57
2018-12-17T09:13:50.940Z,24.83
2018-12-17T09:16:19.043Z,20.10
2018-12-17T09:18:47.116Z,16.30
2018-12-17T09:21:15.186Z,22.20
2018-12-17T09:23:43.339Z,19.13
2018-12-17T09:26:11.401Z,20.90
2018-12-17T09:28:39.488Z,20.50
2018-12-17T09:31:07.575Z,24.87
2018-12-17T09:33:35.653Z,23.37
2018-12-17T09:36:03.727Z,23.47
2018-12-17T09:38:31.791Z,24.93
2018-12-17T09:41:00.150Z,25.80
2018-12-17T09:43:28.228Z,36.87
2018-12-17T09:45:56.393Z,34.60
2018-12-17T09:48:24.465Z,27.80
2018-12-17T09:50:52.580Z,24.23
2018-12-17T09:53:20.830Z,22.60
2018-12-17T09:55:48.866Z,20.73
2018-12-17T09:58:16.951Z,19.23
2018-12-17T10:00:45.044Z,22.03
2018-12-17T10:03:13.117Z,18.50
2018-12-17T10:05:41.193Z,19.20
2018-12-17T10:08:09.221Z,20.87
2018-12-17T10:10:37.627Z,22.60
2018-12-17T10:13:05.776Z,28.57
2018-12-17T10:15:33.862Z,21.80
2018-12-17T10:18:02.361Z,19.17
2018-12-17T10:20:30.419Z,19.93
2018-12-17T10:22:58.487Z,18.63
2018-12-17T10:25:26.559Z,18.93
2018-12-17T10:27:54.621Z,20.17
2018-12-17T10:30:22.684Z,19.17
2018-12-17T10:32:50.769Z,21.67
2018-12-17T10:35:18.871Z,21.13
2018-12-17T10:37:46.931Z,15.63
2018-12-17T10:40:15.009Z,14.37
2018-12-17T10:42:43.093Z,11.60
2018-12-17T10:45:11.159Z,14.17
2018-12-17T10:47:39.227Z,11.17
2018-12-17T10:50:07.542Z,11.43
2018-12-17T10:52:35.590Z,11.53
2018-12-17T10:55:04.891Z,14.00
2018-12-17T10:57:32.928Z,11.83
2018-12-17T11:00:01.023Z,13.07
2018-12-17T11:02:31.069Z,11.30
2018-12-17T11:05:01.434Z,10.47
2018-12-17T11:07:29.497Z,10.93
2018-12-17T11:09:57.560Z,12.53
2018-12-17T11:12:26.099Z,18.70
2018-12-17T11:14:54.196Z,10.63
2018-12-17T11:17:22.249Z,11.57
2018-12-17T11:19:50.312Z,11.10
2018-12-17T11:22:19.127Z,10.20
2018-12-17T11:24:47.211Z,8.17
2018-12-17T11:27:15.268Z,13.17
2018-12-17T11:29:43.443Z,12.10
2018-12-17T11:32:11.787Z,10.83
2018-12-17T11:34:39.998Z,12.37
2018-12-17T11:37:08.096Z,8.07
2018-12-17T11:39:36.156Z,9.57
2018-12-17T11:42:04.238Z,7.47
2018-12-17T11:44:32.336Z,6.87
2018-12-17T11:47:00.504Z,8.97
2018-12-17T11:49:28.638Z,9.97
2018-12-17T11:51:56.721Z,6.07
2018-12-17T11:54:24.873Z,6.37
2018-12-17T11:57:03.540Z,5.13
2018-12-17T11:59:31.685Z,4.20
2018-12-17T12:01:59.960Z,4.90
2018-12-17T12:04:28.092Z,4.10
2018-12-17T12:06:56.190Z,7.73
2018-12-17T12:09:25.134Z,6.80
2018-12-17T12:11:53.216Z,5.70
2018-12-17T12:14:21.266Z,6.83
2018-12-17T12:16:49.474Z,6.53
2018-12-17T12:19:17.710Z,5.07
2018-12-17T12:21:45.774Z,4.90
2018-12-17T12:24:13.908Z,5.87
2018-12-17T12:26:41.924Z,6.50
2018-12-17T12:29:10.054Z,5.77
2018-12-17T12:31:38.120Z,5.07
2018-12-17T12:34:06.172Z,5.40
2018-12-17T12:36:34.292Z,7.20
2018-12-17T12:39:02.640Z,6.40
2018-12-17T12:41:30.732Z,6.73
2018-12-17T12:43:58.804Z,5.80
2018-12-17T12:46:26.874Z,5.60
2018-12-17T12:48:54.924Z,7.63
2018-12-17T12:51:23.025Z,6.03
2018-12-17T12:53:51.089Z,5.07
2018-12-17T12:56:19.153Z,5.80
2018-12-17T12:58:47.219Z,5.20
2018-12-17T13:01:15.312Z,4.60
2018-12-17T13:03:43.402Z,4.00
2018-12-17T13:06:11.437Z,6.17
2018-12-17T13:08:39.503Z,6.27
2018-12-17T13:11:07.614Z,5.47
2018-12-17T13:13:35.670Z,4.77
2018-12-17T13:16:03.745Z,4.27
2018-12-17T13:18:31.928Z,3.93
2018-12-17T13:21:00.017Z,3.33
2018-12-17T13:23:28.087Z,7.43
2018-12-17T13:25:57.249Z,3.30
2018-12-17T13:28:25.310Z,6.00
2018-12-17T13:30:53.387Z,4.60
2018-12-17T13:33:21.481Z,5.03
2018-12-17T13:35:49.541Z,5.67
2018-12-17T13:38:17.606Z,4.73
2018-12-17T13:40:45.668Z,3.97
2018-12-17T13:43:13.720Z,6.43
2018-12-17T13:45:41.785Z,6.17
2018-12-17T13:48:09.946Z,4.27
2018-12-17T13:50:39.110Z,9.77
2018-12-17T13:53:12.971Z,9.63
2018-12-17T13:55:41.024Z,7.33
2018-12-17T13:58:09.200Z,5.30
2018-12-17T14:00:37.268Z,5.27
2018-12-17T14:03:05.380Z,4.77
2018-12-17T14:05:33.493Z,6.37
2018-12-17T14:08:01.522Z,7.00
2018-12-17T14:10:35.176Z,4.43
2018-12-17T14:13:03.241Z,8.73
2018-12-17T14:15:37.019Z,7.80
2018-12-17T14:18:07.102Z,7.60
2018-12-17T14:23:38.505Z,3.77
2018-12-17T14:26:06.569Z,7.10
2018-12-17T14:28:35.417Z,5.87
2018-12-17T14:31:03.536Z,8.37
2018-12-17T14:33:31.598Z,5.33
2018-12-17T14:36:05.264Z,4.50
2018-12-17T14:38:33.412Z,4.40
2018-12-17T14:41:01.440Z,3.53
2018-12-17T14:43:29.509Z,8.23
2018-12-17T14:45:57.583Z,3.17
2018-12-17T14:48:25.644Z,3.33
2018-12-17T14:50:53.731Z,3.67
2018-12-17T14:53:21.812Z,4.00
2018-12-17T14:55:49.970Z,4.70
2018-12-17T14:58:18.262Z,4.10
2018-12-17T15:00:46.306Z,4.80
2018-12-17T15:03:14.389Z,5.07
2018-12-17T15:05:42.550Z,6.23
2018-12-17T15:08:10.592Z,12.53
2018-12-17T15:10:38.795Z,10.53
2018-12-17T15:13:06.940Z,8.10
2018-12-17T15:15:35.008Z,6.83
2018-12-17T15:18:03.382Z,6.07
2018-12-17T15:20:31.427Z,6.93
2018-12-17T15:22:59.510Z,5.67
2018-12-17T15:25:27.620Z,6.77
2018-12-17T15:27:55.720Z,7.10
2018-12-17T15:30:23.881Z,6.23
2018-12-17T15:32:51.963Z,5.00
2018-12-17T15:35:20.050Z,7.03
2018-12-17T15:37:48.121Z,5.57
2018-12-17T15:40:16.190Z,6.73
2018-12-17T15:42:44.236Z,6.27
2018-12-17T15:45:12.308Z,5.80
2018-12-17T15:47:40.403Z,5.17
2018-12-17T15:50:15.970Z,5.27
2018-12-17T15:52:44.035Z,8.67
2018-12-17T15:55:12.131Z,5.50
2018-12-17T15:57:40.311Z,5.20
2018-12-17T16:00:09.539Z,5.77
2018-12-17T16:02:37.688Z,5.47
2018-12-17T16:05:06.075Z,5.47
2018-12-17T16:07:34.151Z,6.83
2018-12-17T16:10:02.379Z,9.37
2018-12-17T16:12:30.553Z,10.27
2018-12-17T16:14:58.587Z,6.60
2018-12-17T16:17:26.639Z,8.43
2018-12-17T16:19:54.689Z,9.50
2018-12-17T16:22:23.146Z,8.17
2018-12-17T16:24:51.224Z,5.73
2018-12-17T16:27:19.630Z,9.23
2018-12-17T16:29:47.931Z,12.93
2018-12-17T16:32:16.011Z,13.10
2018-12-17T16:34:44.069Z,13.73
2018-12-17T16:37:12.181Z,16.17
2018-12-17T16:39:40.206Z,16.40
2018-12-17T16:42:08.282Z,15.37
2018-12-17T16:44:36.334Z,9.80
2018-12-17T16:47:04.445Z,16.07
2018-12-17T16:49:32.517Z,10.90
2018-12-17T16:52:00.597Z,9.67
2018-12-17T16:54:28.732Z,21.40
2018-12-17T16:56:56.797Z,20.47
2018-12-17T16:59:24.894Z,19.67
2018-12-17T17:01:53.079Z,17.33
2018-12-17T17:04:21.225Z,22.27
2018-12-17T17:06:49.252Z,23.67
2018-12-17T17:09:17.333Z,17.43
2018-12-17T17:11:45.403Z,19.43
2018-12-17T17:14:13.476Z,20.47
2018-12-17T17:16:41.558Z,15.77
2018-12-17T17:19:09.634Z,20.53
2018-12-17T17:21:37.734Z,17.80
2018-12-17T17:24:06.240Z,15.70
2018-12-17T17:26:34.311Z,14.70
2018-12-17T17:29:02.375Z,13.80
2018-12-17T17:31:30.538Z,11.33
2018-12-17T17:33:58.649Z,10.50
2018-12-17T17:36:26.821Z,23.03
2018-12-17T17:38:54.859Z,21.47
2018-12-17T17:41:22.999Z,18.60
2018-12-17T17:43:51.110Z,21.73
2018-12-17T17:46:19.201Z,18.30
2018-12-17T17:48:47.342Z,16.90
2018-12-17T17:51:15.670Z,13.97
2018-12-17T17:53:43.766Z,15.47
2018-12-17T17:56:11.908Z,18.10
2018-12-17T17:58:40.316Z,15.47
2018-12-17T18:01:08.472Z,15.87
2018-12-17T18:03:36.548Z,13.67
2018-12-17T18:06:04.595Z,12.30
2018-12-17T18:08:32.692Z,8.53
2018-12-17T18:11:00.866Z,10.07
2018-12-17T18:13:28.953Z,12.27
2018-12-17T18:15:57.011Z,10.23
2018-12-17T18:18:25.083Z,10.93
2018-12-17T18:20:53.160Z,7.07
2018-12-17T18:23:21.238Z,11.83
2018-12-17T18:25:49.311Z,9.00
2018-12-17T18:28:17.379Z,8.87
2018-12-17T18:30:45.464Z,8.43
2018-12-17T18:33:13.538Z,10.20
2018-12-17T18:35:41.796Z,14.97
2018-12-17T18:38:09.921Z,11.30
2018-12-17T18:40:37.986Z,9.90
2018-12-17T18:43:06.206Z,11.03
2018-12-17T18:45:34.378Z,10.47
2018-12-17T18:48:02.449Z,10.40
2018-12-17T18:50:30.522Z,8.93
2018-12-17T18:52:58.581Z,13.53
2018-12-17T18:55:26.680Z,14.17
2018-12-17T18:57:54.763Z,12.00
2018-12-17T19:00:22.930Z,9.27
2018-12-17T19:02:50.998Z,11.63
2018-12-17T19:05:19.069Z,13.77
2018-12-17T19:07:47.240Z,12.60
2018-12-17T19:10:15.371Z,11.93
2018-12-17T19:12:43.475Z,11.63
2018-12-17T19:15:11.541Z,9.43
2018-12-17T19:17:39.648Z,11.80
2018-12-17T19:20:07.938Z,11.20
2018-12-17T19:22:36.323Z,11.20
2018-12-17T19:25:05.524Z,14.17
2018-12-17T19:27:33.698Z,11.43
2018-12-17T19:30:01.823Z,11.53
2018-12-17T19:32:31.173Z,11.50
2018-12-17T19:34:59.238Z,18.60
2018-12-17T19:37:27.288Z,14.17
2018-12-17T19:39:55.400Z,13.47
2018-12-17T19:42:23.464Z,8.73
2018-12-17T19:44:51.530Z,11.67
2018-12-17T19:47:19.699Z,10.53
2018-12-17T19:49:47.760Z,11.03
2018-12-17T19:52:16.844Z,8.23
2018-12-17T19:54:45.044Z,10.10
2018-12-17T19:57:13.088Z,9.63
2018-12-17T19:59:41.263Z,9.90
2018-12-17T20:02:09.334Z,11.40
2018-12-17T20:04:37.425Z,14.20
2018-12-17T20:07:05.501Z,9.83
2018-12-17T20:09:33.667Z,15.17
2018-12-17T20:12:02.046Z,14.03
2018-12-17T20:14:30.099Z,11.63
2018-12-17T20:16:58.151Z,12.13
2018-12-17T20:19:26.244Z,10.00
2018-12-17T20:21:54.284Z,11.37
2018-12-17T20:24:22.616Z,10.27
2018-12-17T20:26:50.706Z,11.77
2018-12-17T20:29:19.595Z,12.53
2018-12-17T20:31:47.667Z,13.70
2018-12-17T20:34:15.760Z,7.93
2018-12-17T20:36:43.874Z,10.57
2018-12-17T20:39:11.979Z,10.87
2018-12-17T20:41:40.060Z,13.13
2018-12-17T20:44:08.114Z,17.10
2018-12-17T20:46:36.208Z,10.90
2018-12-17T20:49:04.290Z,12.87
2018-12-17T20:51:32.364Z,14.63
2018-12-17T20:54:00.509Z,12.17
2018-12-17T20:56:28.565Z,12.77
2018-12-17T20:58:56.752Z,9.80
2018-12-17T21:01:24.820Z,13.60
2018-12-17T21:03:52.935Z,12.27
2018-12-17T21:06:21.007Z,12.47
2018-12-17T21:08:52.463Z,12.87
2018-12-17T21:11:20.584Z,15.10
2018-12-17T21:13:48.658Z,13.13
2018-12-17T21:16:16.755Z,11.43
2018-12-17T21:18:45.015Z,14.70
2018-12-17T21:21:13.199Z,12.20
2018-12-17T21:23:41.402Z,13.10
2018-12-17T21:26:09.481Z,13.80
2018-12-17T21:28:37.583Z,14.67
2018-12-17T21:31:05.665Z,12.97
2018-12-17T21:33:33.766Z,14.83
2018-12-17T21:36:01.859Z,11.70
2018-12-17T21:38:29.975Z,12.93
2018-12-17T21:40:58.124Z,11.83
2018-12-17T21:43:26.166Z,12.37
2018-12-17T21:45:54.310Z,11.23
2018-12-17T21:48:22.360Z,10.53
2018-12-17T21:50:50.560Z,10.83
2018-12-17T21:53:18.692Z,13.70
2018-12-17T21:55:46.768Z,11.60
2018-12-17T21:58:14.837Z,12.53
2018-12-17T22:00:42.884Z,13.27
2018-12-17T22:03:13.326Z,11.77
2018-12-17T22:05:41.149Z,11.87
2018-12-17T22:08:09.232Z,9.03
2018-12-17T22:10:37.363Z,10.67
2018-12-17T22:13:05.442Z,8.00
2018-12-17T22:15:33.523Z,7.63
2018-12-17T22:18:01.579Z,7.33
2018-12-17T22:20:29.729Z,7.83
2018-12-17T22:22:57.837Z,9.67
2018-12-17T22:25:25.907Z,6.90
2018-12-17T22:27:53.929Z,8.17
2018-12-17T22:30:22.017Z,10.03
2018-12-17T22:32:50.299Z,15.60
2018-12-17T22:35:18.437Z,10.60
2018-12-17T22:37:46.513Z,10.93
2018-12-17T22:40:14.677Z,14.97
2018-12-17T22:42:42.754Z,15.30
2018-12-17T22:45:10.848Z,10.23
2018-12-17T22:47:38.916Z,10.30
2018-12-17T22:50:07.198Z,12.70
2018-12-17T22:52:35.256Z,10.53
2018-12-17T22:55:03.642Z,12.87
2018-12-17T22:57:31.784Z,15.27
2018-12-17T22:59:59.808Z,16.77
2018-12-17T23:02:27.967Z,10.93
2018-12-17T23:04:56.755Z,12.57
2018-12-17T23:07:25.850Z,12.43
2018-12-17T23:10:05.817Z,11.03
2018-12-17T23:12:45.698Z,11.63
2018-12-17T23:15:25.811Z,10.13
2018-12-17T23:17:53.689Z,9.43
2018-12-17T23:20:22.015Z,9.07
2018-12-17T23:22:50.068Z,8.47
2018-12-17T23:25:18.193Z,7.13
2018-12-17T23:27:47.986Z,6.50
2018-12-17T23:30:16.300Z,6.33
2018-12-17T23:32:44.513Z,5.23
2018-12-17T23:35:12.711Z,7.53
2018-12-17T23:37:40.937Z,6.07
2018-12-17T23:40:10.282Z,5.93
2018-12-17T23:42:38.647Z,5.67
2018-12-17T23:45:07.220Z,6.50
2018-12-17T23:47:35.301Z,6.67
2018-12-17T23:50:04.093Z,6.50
2018-12-17T23:52:32.135Z,6.17
2018-12-17T23:55:00.291Z,7.40
2018-12-17T23:57:28.355Z,8.07
2018-12-17T23:59:56.429Z,8.17
